sensor_id;sensor_type;location;lat;lon;timestamp;temperature;humidity
50570;DHT22;36525;49.398;7.614;2024-02-23T00:01:06;6.30;99.90
50570;DHT22;36525;49.398;7.614;2024-02-23T00:03:33;6.30;99.90
50570;DHT22;36525;49.398;7.614;2024-02-23T00:06:02;6.20;99.90
50570;DHT22;36525;49.398;7.614;2024-02-23T00:08:29;6.30;99.90
50570;DHT22;36525;49.398;7.614;2024-02-23T00:10:56;6.20;99.90
50570;DHT22;36525;49.398;7.614;2024-02-23T00:13:23;6.20;99.90
50570;DHT22;36525;49.398;7.614;2024-02-23T00:15:50;6.20;99.90
50570;DHT22;36525;49.398;7.614;2024-02-23T00:18:18;6.10;99.90
50570;DHT22;36525;49.398;7.614;2024-02-23T00:20:46;6.10;99.90
50570;DHT22;36525;49.398;7.614;2024-02-23T00:23:13;6.10;99.90
50570;DHT22;36525;49.398;7.614;2024-02-23T00:25:40;6.10;99.90
50570;DHT22;36525;49.398;7.614;2024-02-23T00:28:08;6.10;99.90
50570;DHT22;36525;49.398;7.614;2024-02-23T00:30:35;6.10;99.90
50570;DHT22;36525;49.398;7.614;2024-02-23T00:33:02;6.10;99.90
50570;DHT22;36525;49.398;7.614;2024-02-23T00:35:29;6.00;99.90
50570;DHT22;36525;49.398;7.614;2024-02-23T00:38:13;6.00;99.90
50570;DHT22;36525;49.398;7.614;2024-02-23T00:40:40;6.00;99.90
50570;DHT22;36525;49.398;7.614;2024-02-23T00:43:07;5.90;99.90
50570;DHT22;36525;49.398;7.614;2024-02-23T00:45:34;5.90;99.90
50570;DHT22;36525;49.398;7.614;2024-02-23T00:48:00;5.90;99.90
50570;DHT22;36525;49.398;7.614;2024-02-23T00:52:55;4.30;99.90
50570;DHT22;36525;49.398;7.614;2024-02-23T00:55:22;3.40;99.90
50570;DHT22;36525;49.398;7.614;2024-02-23T00:57:51;3.00;99.90
50570;DHT22;36525;49.398;7.614;2024-02-23T01:00:18;2.70;99.90
50570;DHT22;36525;49.398;7.614;2024-02-23T01:02:45;2.60;99.90
50570;DHT22;36525;49.398;7.614;2024-02-23T01:05:11;2.50;99.90
50570;DHT22;36525;49.398;7.614;2024-02-23T01:07:39;2.50;99.90
50570;DHT22;36525;49.398;7.614;2024-02-23T01:10:06;2.70;99.90
50570;DHT22;36525;49.398;7.614;2024-02-23T01:12:33;2.70;99.90
50570;DHT22;36525;49.398;7.614;2024-02-23T01:15:00;2.80;99.90
50570;DHT22;36525;49.398;7.614;2024-02-23T01:17:31;2.90;99.90
50570;DHT22;36525;49.398;7.614;2024-02-23T01:19:58;3.00;99.90
50570;DHT22;36525;49.398;7.614;2024-02-23T01:22:25;3.10;99.90
50570;DHT22;36525;49.398;7.614;2024-02-23T01:24:52;3.20;99.90
50570;DHT22;36525;49.398;7.614;2024-02-23T01:27:18;3.30;99.90
50570;DHT22;36525;49.398;7.614;2024-02-23T01:29:45;3.30;99.90
50570;DHT22;36525;49.398;7.614;2024-02-23T01:32:12;3.30;99.90
50570;DHT22;36525;49.398;7.614;2024-02-23T01:34:39;3.40;99.90
50570;DHT22;36525;49.398;7.614;2024-02-23T01:37:05;3.40;99.90
50570;DHT22;36525;49.398;7.614;2024-02-23T01:39:32;3.40;99.90
50570;DHT22;36525;49.398;7.614;2024-02-23T01:41:59;3.40;99.90
50570;DHT22;36525;49.398;7.614;2024-02-23T01:44:26;3.40;99.90
50570;DHT22;36525;49.398;7.614;2024-02-23T01:46:53;3.40;99.90
50570;DHT22;36525;49.398;7.614;2024-02-23T01:49:20;3.40;99.90
50570;DHT22;36525;49.398;7.614;2024-02-23T01:51:48;3.50;99.90
50570;DHT22;36525;49.398;7.614;2024-02-23T01:54:15;3.50;99.90
50570;DHT22;36525;49.398;7.614;2024-02-23T01:56:42;3.60;99.90
50570;DHT22;36525;49.398;7.614;2024-02-23T01:59:09;3.60;99.90
50570;DHT22;36525;49.398;7.614;2024-02-23T02:01:37;3.70;99.90
50570;DHT22;36525;49.398;7.614;2024-02-23T02:04:03;3.70;99.90
50570;DHT22;36525;49.398;7.614;2024-02-23T02:06:30;3.80;99.90
50570;DHT22;36525;49.398;7.614;2024-02-23T02:08:57;3.80;99.90
50570;DHT22;36525;49.398;7.614;2024-02-23T02:11:24;3.80;99.90
50570;DHT22;36525;49.398;7.614;2024-02-23T02:13:51;3.90;99.90
50570;DHT22;36525;49.398;7.614;2024-02-23T02:16:18;4.00;99.90
50570;DHT22;36525;49.398;7.614;2024-02-23T02:18:44;4.00;99.90
50570;DHT22;36525;49.398;7.614;2024-02-23T02:21:12;4.00;99.90
50570;DHT22;36525;49.398;7.614;2024-02-23T02:23:39;4.00;99.90
50570;DHT22;36525;49.398;7.614;2024-02-23T02:26:06;4.00;99.90
50570;DHT22;36525;49.398;7.614;2024-02-23T02:28:33;4.00;99.90
50570;DHT22;36525;49.398;7.614;2024-02-23T02:31:00;4.00;99.90
50570;DHT22;36525;49.398;7.614;2024-02-23T02:33:27;3.90;99.90
50570;DHT22;36525;49.398;7.614;2024-02-23T02:35:54;4.00;99.90
50570;DHT22;36525;49.398;7.614;2024-02-23T02:38:21;3.90;99.90
50570;DHT22;36525;49.398;7.614;2024-02-23T02:40:48;4.00;99.90
50570;DHT22;36525;49.398;7.614;2024-02-23T02:43:14;4.00;99.90
50570;DHT22;36525;49.398;7.614;2024-02-23T02:45:41;4.00;99.90
50570;DHT22;36525;49.398;7.614;2024-02-23T02:48:08;4.00;99.90
50570;DHT22;36525;49.398;7.614;2024-02-23T02:50:35;4.00;99.90
50570;DHT22;36525;49.398;7.614;2024-02-23T02:53:02;4.00;99.90
50570;DHT22;36525;49.398;7.614;2024-02-23T02:55:29;4.00;99.90
50570;DHT22;36525;49.398;7.614;2024-02-23T02:57:57;4.00;99.90
50570;DHT22;36525;49.398;7.614;2024-02-23T03:00:25;4.00;99.90
50570;DHT22;36525;49.398;7.614;2024-02-23T03:02:52;4.00;99.90
50570;DHT22;36525;49.398;7.614;2024-02-23T03:05:19;4.00;99.90
50570;DHT22;36525;49.398;7.614;2024-02-23T03:07:46;4.10;99.90
50570;DHT22;36525;49.398;7.614;2024-02-23T03:10:13;4.10;99.90
50570;DHT22;36525;49.398;7.614;2024-02-23T03:12:40;4.10;99.90
50570;DHT22;36525;49.398;7.614;2024-02-23T03:15:07;4.10;99.90
50570;DHT22;36525;49.398;7.614;2024-02-23T03:17:35;4.10;99.90
50570;DHT22;36525;49.398;7.614;2024-02-23T03:20:02;4.20;99.90
50570;DHT22;36525;49.398;7.614;2024-02-23T03:22:36;4.20;99.90
50570;DHT22;36525;49.398;7.614;2024-02-23T03:25:06;4.20;99.90
50570;DHT22;36525;49.398;7.614;2024-02-23T03:27:36;4.20;99.90
50570;DHT22;36525;49.398;7.614;2024-02-23T03:30:04;4.20;99.90
50570;DHT22;36525;49.398;7.614;2024-02-23T03:32:31;4.30;99.90
50570;DHT22;36525;49.398;7.614;2024-02-23T03:35:03;4.20;99.90
50570;DHT22;36525;49.398;7.614;2024-02-23T03:37:30;4.20;99.90
50570;DHT22;36525;49.398;7.614;2024-02-23T03:39:57;4.30;99.90
50570;DHT22;36525;49.398;7.614;2024-02-23T03:42:24;4.20;99.90
50570;DHT22;36525;49.398;7.614;2024-02-23T03:44:51;4.20;99.90
50570;DHT22;36525;49.398;7.614;2024-02-23T03:47:18;4.20;99.90
50570;DHT22;36525;49.398;7.614;2024-02-23T03:49:44;4.20;99.90
50570;DHT22;36525;49.398;7.614;2024-02-23T03:52:11;4.20;99.90
50570;DHT22;36525;49.398;7.614;2024-02-23T03:54:38;4.20;99.90
50570;DHT22;36525;49.398;7.614;2024-02-23T03:57:05;4.20;99.90
50570;DHT22;36525;49.398;7.614;2024-02-23T03:59:32;4.10;99.90
50570;DHT22;36525;49.398;7.614;2024-02-23T04:01:58;4.10;99.90
50570;DHT22;36525;49.398;7.614;2024-02-23T04:04:25;4.10;99.90
50570;DHT22;36525;49.398;7.614;2024-02-23T04:06:52;4.20;99.90
50570;DHT22;36525;49.398;7.614;2024-02-23T04:09:19;4.20;99.90
50570;DHT22;36525;49.398;7.614;2024-02-23T04:11:47;4.20;99.90
50570;DHT22;36525;49.398;7.614;2024-02-23T04:14:15;4.20;99.90
50570;DHT22;36525;49.398;7.614;2024-02-23T04:16:42;4.20;99.90
50570;DHT22;36525;49.398;7.614;2024-02-23T04:19:08;4.10;99.90
50570;DHT22;36525;49.398;7.614;2024-02-23T04:21:39;4.10;99.90
50570;DHT22;36525;49.398;7.614;2024-02-23T04:24:05;4.10;99.90
50570;DHT22;36525;49.398;7.614;2024-02-23T04:26:33;4.10;99.90
50570;DHT22;36525;49.398;7.614;2024-02-23T04:29:00;4.10;99.90
50570;DHT22;36525;49.398;7.614;2024-02-23T04:31:27;4.10;99.90
50570;DHT22;36525;49.398;7.614;2024-02-23T04:33:54;4.10;99.90
50570;DHT22;36525;49.398;7.614;2024-02-23T04:36:21;4.00;99.90
50570;DHT22;36525;49.398;7.614;2024-02-23T04:38:48;4.00;99.90
50570;DHT22;36525;49.398;7.614;2024-02-23T04:41:15;4.10;99.90
50570;DHT22;36525;49.398;7.614;2024-02-23T04:43:46;4.00;99.90
50570;DHT22;36525;49.398;7.614;2024-02-23T04:46:13;4.00;99.90
50570;DHT22;36525;49.398;7.614;2024-02-23T04:48:40;4.00;99.90
50570;DHT22;36525;49.398;7.614;2024-02-23T04:51:07;4.00;99.90
50570;DHT22;36525;49.398;7.614;2024-02-23T04:53:36;4.00;99.90
50570;DHT22;36525;49.398;7.614;2024-02-23T04:56:04;4.10;99.90
50570;DHT22;36525;49.398;7.614;2024-02-23T04:58:31;4.00;99.90
50570;DHT22;36525;49.398;7.614;2024-02-23T05:00:58;4.00;99.90
50570;DHT22;36525;49.398;7.614;2024-02-23T05:03:25;4.00;99.90
50570;DHT22;36525;49.398;7.614;2024-02-23T05:05:53;4.00;99.90
50570;DHT22;36525;49.398;7.614;2024-02-23T05:08:20;3.90;99.90
50570;DHT22;36525;49.398;7.614;2024-02-23T05:10:47;3.90;99.90
50570;DHT22;36525;49.398;7.614;2024-02-23T05:13:14;3.90;99.90
50570;DHT22;36525;49.398;7.614;2024-02-23T05:15:41;3.90;99.90
50570;DHT22;36525;49.398;7.614;2024-02-23T05:18:08;3.90;99.90
50570;DHT22;36525;49.398;7.614;2024-02-23T05:20:35;3.90;99.90
50570;DHT22;36525;49.398;7.614;2024-02-23T05:23:02;4.00;99.90
50570;DHT22;36525;49.398;7.614;2024-02-23T05:25:29;3.90;99.90
50570;DHT22;36525;49.398;7.614;2024-02-23T05:27:55;4.00;99.90
50570;DHT22;36525;49.398;7.614;2024-02-23T05:30:22;3.90;99.90
50570;DHT22;36525;49.398;7.614;2024-02-23T05:32:49;3.90;99.90
50570;DHT22;36525;49.398;7.614;2024-02-23T05:35:17;3.90;99.90
50570;DHT22;36525;49.398;7.614;2024-02-23T05:37:43;3.90;99.90
50570;DHT22;36525;49.398;7.614;2024-02-23T05:40:10;3.90;99.90
50570;DHT22;36525;49.398;7.614;2024-02-23T05:42:37;3.90;99.90
50570;DHT22;36525;49.398;7.614;2024-02-23T05:45:06;3.90;99.90
50570;DHT22;36525;49.398;7.614;2024-02-23T05:47:36;3.80;99.90
50570;DHT22;36525;49.398;7.614;2024-02-23T05:50:04;3.80;99.90
50570;DHT22;36525;49.398;7.614;2024-02-23T05:52:31;3.80;99.90
50570;DHT22;36525;49.398;7.614;2024-02-23T05:54:59;3.80;99.90
50570;DHT22;36525;49.398;7.614;2024-02-23T05:57:27;3.90;99.90
50570;DHT22;36525;49.398;7.614;2024-02-23T05:59:53;3.90;99.90
50570;DHT22;36525;49.398;7.614;2024-02-23T06:02:22;3.80;99.90
50570;DHT22;36525;49.398;7.614;2024-02-23T06:04:49;3.90;99.90
50570;DHT22;36525;49.398;7.614;2024-02-23T06:07:16;3.80;99.90
50570;DHT22;36525;49.398;7.614;2024-02-23T06:09:43;3.80;99.90
50570;DHT22;36525;49.398;7.614;2024-02-23T06:12:10;3.80;99.90
50570;DHT22;36525;49.398;7.614;2024-02-23T06:14:37;3.80;99.90
50570;DHT22;36525;49.398;7.614;2024-02-23T06:17:04;3.80;99.90
50570;DHT22;36525;49.398;7.614;2024-02-23T06:19:33;3.80;99.90
50570;DHT22;36525;49.398;7.614;2024-02-23T06:22:00;3.80;99.90
50570;DHT22;36525;49.398;7.614;2024-02-23T06:24:27;3.80;99.90
50570;DHT22;36525;49.398;7.614;2024-02-23T06:26:53;3.80;99.90
50570;DHT22;36525;49.398;7.614;2024-02-23T06:29:20;3.80;99.90
50570;DHT22;36525;49.398;7.614;2024-02-23T06:31:47;3.80;99.90
50570;DHT22;36525;49.398;7.614;2024-02-23T06:34:16;3.80;99.90
50570;DHT22;36525;49.398;7.614;2024-02-23T06:36:43;3.80;99.90
50570;DHT22;36525;49.398;7.614;2024-02-23T06:39:10;3.80;99.90
50570;DHT22;36525;49.398;7.614;2024-02-23T06:41:37;3.80;99.90
50570;DHT22;36525;49.398;7.614;2024-02-23T06:44:08;3.80;99.90
50570;DHT22;36525;49.398;7.614;2024-02-23T06:46:34;3.80;99.90
50570;DHT22;36525;49.398;7.614;2024-02-23T06:49:01;3.70;99.90
50570;DHT22;36525;49.398;7.614;2024-02-23T06:51:28;3.70;99.90
50570;DHT22;36525;49.398;7.614;2024-02-23T06:53:55;3.70;99.90
50570;DHT22;36525;49.398;7.614;2024-02-23T06:56:23;3.70;99.90
50570;DHT22;36525;49.398;7.614;2024-02-23T06:58:50;3.80;99.90
50570;DHT22;36525;49.398;7.614;2024-02-23T07:01:16;3.70;99.90
50570;DHT22;36525;49.398;7.614;2024-02-23T07:03:43;3.70;99.90
50570;DHT22;36525;49.398;7.614;2024-02-23T07:06:11;3.80;99.90
50570;DHT22;36525;49.398;7.614;2024-02-23T07:08:38;3.80;99.90
50570;DHT22;36525;49.398;7.614;2024-02-23T07:11:05;3.80;99.90
50570;DHT22;36525;49.398;7.614;2024-02-23T07:13:32;3.80;99.90
50570;DHT22;36525;49.398;7.614;2024-02-23T07:16:00;3.90;99.90
50570;DHT22;36525;49.398;7.614;2024-02-23T07:18:27;3.90;99.90
50570;DHT22;36525;49.398;7.614;2024-02-23T07:20:53;4.00;99.90
50570;DHT22;36525;49.398;7.614;2024-02-23T07:23:20;3.90;99.90
50570;DHT22;36525;49.398;7.614;2024-02-23T07:25:49;4.00;99.90
50570;DHT22;36525;49.398;7.614;2024-02-23T07:28:17;4.00;99.90
50570;DHT22;36525;49.398;7.614;2024-02-23T07:30:46;4.00;99.90
50570;DHT22;36525;49.398;7.614;2024-02-23T07:33:13;4.10;99.90
50570;DHT22;36525;49.398;7.614;2024-02-23T07:35:40;4.10;99.90
50570;DHT22;36525;49.398;7.614;2024-02-23T07:38:06;4.10;99.90
50570;DHT22;36525;49.398;7.614;2024-02-23T07:40:33;4.10;99.90
50570;DHT22;36525;49.398;7.614;2024-02-23T07:43:00;4.00;99.90
50570;DHT22;36525;49.398;7.614;2024-02-23T07:45:27;4.10;99.90
50570;DHT22;36525;49.398;7.614;2024-02-23T07:47:54;4.00;99.90
50570;DHT22;36525;49.398;7.614;2024-02-23T07:50:20;4.00;99.90
50570;DHT22;36525;49.398;7.614;2024-02-23T07:52:47;4.10;99.90
50570;DHT22;36525;49.398;7.614;2024-02-23T07:55:14;4.10;99.90
50570;DHT22;36525;49.398;7.614;2024-02-23T07:57:43;4.10;99.90
50570;DHT22;36525;49.398;7.614;2024-02-23T08:00:10;4.20;99.90
50570;DHT22;36525;49.398;7.614;2024-02-23T08:02:37;4.30;99.90
50570;DHT22;36525;49.398;7.614;2024-02-23T08:05:06;4.40;99.90
50570;DHT22;36525;49.398;7.614;2024-02-23T08:07:33;4.90;99.90
50570;DHT22;36525;49.398;7.614;2024-02-23T08:10:00;5.20;99.90
50570;DHT22;36525;49.398;7.614;2024-02-23T08:12:29;4.90;99.90
50570;DHT22;36525;49.398;7.614;2024-02-23T08:14:56;4.90;99.90
50570;DHT22;36525;49.398;7.614;2024-02-23T08:17:23;4.90;99.90
50570;DHT22;36525;49.398;7.614;2024-02-23T08:19:50;4.70;99.90
50570;DHT22;36525;49.398;7.614;2024-02-23T08:22:17;4.80;99.90
50570;DHT22;36525;49.398;7.614;2024-02-23T08:24:44;5.00;99.90
50570;DHT22;36525;49.398;7.614;2024-02-23T08:27:10;4.90;99.90
50570;DHT22;36525;49.398;7.614;2024-02-23T08:29:37;5.00;99.90
50570;DHT22;36525;49.398;7.614;2024-02-23T08:32:05;5.70;99.90
50570;DHT22;36525;49.398;7.614;2024-02-23T08:34:32;6.20;99.90
50570;DHT22;36525;49.398;7.614;2024-02-23T08:37:00;5.90;99.90
50570;DHT22;36525;49.398;7.614;2024-02-23T08:39:30;5.40;99.90
50570;DHT22;36525;49.398;7.614;2024-02-23T08:41:56;5.40;99.90
50570;DHT22;36525;49.398;7.614;2024-02-23T08:44:23;5.20;99.90
50570;DHT22;36525;49.398;7.614;2024-02-23T08:46:50;5.20;99.90
50570;DHT22;36525;49.398;7.614;2024-02-23T08:49:17;5.40;99.90
50570;DHT22;36525;49.398;7.614;2024-02-23T08:51:44;5.40;99.90
50570;DHT22;36525;49.398;7.614;2024-02-23T08:54:11;5.40;99.90
50570;DHT22;36525;49.398;7.614;2024-02-23T08:56:38;5.50;99.90
50570;DHT22;36525;49.398;7.614;2024-02-23T08:59:06;5.40;99.90
50570;DHT22;36525;49.398;7.614;2024-02-23T09:01:33;5.40;99.90
50570;DHT22;36525;49.398;7.614;2024-02-23T09:04:00;5.40;99.90
50570;DHT22;36525;49.398;7.614;2024-02-23T09:06:26;5.40;99.90
50570;DHT22;36525;49.398;7.614;2024-02-23T09:08:54;5.50;99.90
50570;DHT22;36525;49.398;7.614;2024-02-23T09:11:21;5.60;99.90
50570;DHT22;36525;49.398;7.614;2024-02-23T09:13:48;5.70;99.90
50570;DHT22;36525;49.398;7.614;2024-02-23T09:16:15;5.80;99.90
50570;DHT22;36525;49.398;7.614;2024-02-23T09:18:42;5.80;99.90
50570;DHT22;36525;49.398;7.614;2024-02-23T09:21:09;5.70;99.90
50570;DHT22;36525;49.398;7.614;2024-02-23T09:23:36;5.70;99.90
50570;DHT22;36525;49.398;7.614;2024-02-23T09:26:08;5.70;99.90
50570;DHT22;36525;49.398;7.614;2024-02-23T09:28:38;5.70;99.90
50570;DHT22;36525;49.398;7.614;2024-02-23T09:31:07;5.70;99.90
50570;DHT22;36525;49.398;7.614;2024-02-23T09:33:34;5.70;99.90
50570;DHT22;36525;49.398;7.614;2024-02-23T09:36:01;5.70;99.90
50570;DHT22;36525;49.398;7.614;2024-02-23T09:38:28;5.70;99.90
50570;DHT22;36525;49.398;7.614;2024-02-23T09:40:54;5.60;99.90
50570;DHT22;36525;49.398;7.614;2024-02-23T09:43:22;5.60;99.90
50570;DHT22;36525;49.398;7.614;2024-02-23T09:45:52;5.50;99.90
50570;DHT22;36525;49.398;7.614;2024-02-23T09:48:19;5.50;99.90
50570;DHT22;36525;49.398;7.614;2024-02-23T09:50:47;5.60;99.90
50570;DHT22;36525;49.398;7.614;2024-02-23T09:53:14;5.60;99.90
50570;DHT22;36525;49.398;7.614;2024-02-23T09:55:42;5.70;99.90
50570;DHT22;36525;49.398;7.614;2024-02-23T09:58:09;5.80;99.90
50570;DHT22;36525;49.398;7.614;2024-02-23T10:00:37;5.70;99.90
50570;DHT22;36525;49.398;7.614;2024-02-23T10:03:04;5.60;99.90
50570;DHT22;36525;49.398;7.614;2024-02-23T10:05:32;5.60;99.90
50570;DHT22;36525;49.398;7.614;2024-02-23T10:08:04;5.70;99.90
50570;DHT22;36525;49.398;7.614;2024-02-23T10:10:35;5.70;99.90
50570;DHT22;36525;49.398;7.614;2024-02-23T10:13:04;5.60;99.90
50570;DHT22;36525;49.398;7.614;2024-02-23T10:15:31;5.50;99.90
50570;DHT22;36525;49.398;7.614;2024-02-23T10:17:58;5.40;99.90
50570;DHT22;36525;49.398;7.614;2024-02-23T10:20:25;5.30;99.90
50570;DHT22;36525;49.398;7.614;2024-02-23T10:22:52;5.30;99.90
50570;DHT22;36525;49.398;7.614;2024-02-23T10:25:20;5.40;99.90
50570;DHT22;36525;49.398;7.614;2024-02-23T10:27:48;5.40;99.90
50570;DHT22;36525;49.398;7.614;2024-02-23T10:30:15;5.60;99.90
50570;DHT22;36525;49.398;7.614;2024-02-23T10:32:42;5.70;99.90
50570;DHT22;36525;49.398;7.614;2024-02-23T10:35:11;5.70;99.90
50570;DHT22;36525;49.398;7.614;2024-02-23T10:37:41;5.70;99.90
50570;DHT22;36525;49.398;7.614;2024-02-23T10:40:09;5.70;99.90
50570;DHT22;36525;49.398;7.614;2024-02-23T10:42:38;5.90;99.90
50570;DHT22;36525;49.398;7.614;2024-02-23T10:45:07;6.20;99.90
50570;DHT22;36525;49.398;7.614;2024-02-23T10:47:35;6.20;99.90
50570;DHT22;36525;49.398;7.614;2024-02-23T10:50:03;6.20;99.90
50570;DHT22;36525;49.398;7.614;2024-02-23T10:52:32;6.10;99.90
50570;DHT22;36525;49.398;7.614;2024-02-23T10:55:00;6.20;99.90
50570;DHT22;36525;49.398;7.614;2024-02-23T10:57:31;6.20;99.90
50570;DHT22;36525;49.398;7.614;2024-02-23T11:00:00;6.00;99.90
50570;DHT22;36525;49.398;7.614;2024-02-23T11:02:29;6.20;99.90
50570;DHT22;36525;49.398;7.614;2024-02-23T11:04:58;6.20;99.90
50570;DHT22;36525;49.398;7.614;2024-02-23T11:07:26;6.30;99.90
50570;DHT22;36525;49.398;7.614;2024-02-23T11:09:54;6.30;99.90
50570;DHT22;36525;49.398;7.614;2024-02-23T11:12:25;6.30;99.90
50570;DHT22;36525;49.398;7.614;2024-02-23T11:14:56;6.30;99.90
50570;DHT22;36525;49.398;7.614;2024-02-23T11:17:26;6.30;99.90
50570;DHT22;36525;49.398;7.614;2024-02-23T11:19:54;6.40;99.90
50570;DHT22;36525;49.398;7.614;2024-02-23T11:22:30;6.30;99.90
50570;DHT22;36525;49.398;7.614;2024-02-23T11:27:35;5.80;99.90
50570;DHT22;36525;49.398;7.614;2024-02-23T11:30:03;5.70;99.90
50570;DHT22;36525;49.398;7.614;2024-02-23T11:32:38;5.80;99.90
50570;DHT22;36525;49.398;7.614;2024-02-23T11:35:11;6.00;99.90
50570;DHT22;36525;49.398;7.614;2024-02-23T11:40:16;6.10;99.90
50570;DHT22;36525;49.398;7.614;2024-02-23T11:42:44;6.20;99.90
50570;DHT22;36525;49.398;7.614;2024-02-23T11:45:11;6.40;99.90
50570;DHT22;36525;49.398;7.614;2024-02-23T11:47:38;6.60;99.90
50570;DHT22;36525;49.398;7.614;2024-02-23T11:50:08;6.60;99.90
50570;DHT22;36525;49.398;7.614;2024-02-23T11:52:37;6.60;99.90
50570;DHT22;36525;49.398;7.614;2024-02-23T11:55:04;6.90;99.90
50570;DHT22;36525;49.398;7.614;2024-02-23T11:57:32;7.10;99.90
50570;DHT22;36525;49.398;7.614;2024-02-23T12:00:12;7.20;99.90
50570;DHT22;36525;49.398;7.614;2024-02-23T12:02:39;7.10;99.90
50570;DHT22;36525;49.398;7.614;2024-02-23T12:05:06;7.00;99.90
50570;DHT22;36525;49.398;7.614;2024-02-23T12:07:34;6.90;99.90
50570;DHT22;36525;49.398;7.614;2024-02-23T12:10:01;7.10;99.90
50570;DHT22;36525;49.398;7.614;2024-02-23T12:12:30;7.10;99.90
50570;DHT22;36525;49.398;7.614;2024-02-23T12:14:57;7.20;99.90
50570;DHT22;36525;49.398;7.614;2024-02-23T12:17:25;7.20;99.90
50570;DHT22;36525;49.398;7.614;2024-02-23T12:20:00;7.20;99.90
50570;DHT22;36525;49.398;7.614;2024-02-23T12:22:28;7.40;99.90
50570;DHT22;36525;49.398;7.614;2024-02-23T12:25:01;7.80;99.90
50570;DHT22;36525;49.398;7.614;2024-02-23T12:27:29;7.90;99.90
50570;DHT22;36525;49.398;7.614;2024-02-23T12:29:56;8.00;99.90
50570;DHT22;36525;49.398;7.614;2024-02-23T12:32:23;7.90;99.90
50570;DHT22;36525;49.398;7.614;2024-02-23T12:34:50;7.60;99.90
50570;DHT22;36525;49.398;7.614;2024-02-23T12:37:17;7.60;99.90
50570;DHT22;36525;49.398;7.614;2024-02-23T12:39:44;7.90;99.90
50570;DHT22;36525;49.398;7.614;2024-02-23T12:42:11;7.70;99.90
50570;DHT22;36525;49.398;7.614;2024-02-23T12:44:38;7.70;99.90
50570;DHT22;36525;49.398;7.614;2024-02-23T12:47:05;7.70;99.90
50570;DHT22;36525;49.398;7.614;2024-02-23T12:49:32;7.70;99.90
50570;DHT22;36525;49.398;7.614;2024-02-23T12:51:59;7.90;99.90
50570;DHT22;36525;49.398;7.614;2024-02-23T12:54:26;7.70;99.90
50570;DHT22;36525;49.398;7.614;2024-02-23T12:56:53;7.70;99.90
50570;DHT22;36525;49.398;7.614;2024-02-23T12:59:20;8.00;99.90
50570;DHT22;36525;49.398;7.614;2024-02-23T13:01:47;7.80;99.90
50570;DHT22;36525;49.398;7.614;2024-02-23T13:04:17;7.90;99.90
50570;DHT22;36525;49.398;7.614;2024-02-23T13:06:44;8.10;99.90
50570;DHT22;36525;49.398;7.614;2024-02-23T13:09:11;8.10;99.90
50570;DHT22;36525;49.398;7.614;2024-02-23T13:11:39;8.00;99.90
50570;DHT22;36525;49.398;7.614;2024-02-23T13:14:06;8.00;99.90
50570;DHT22;36525;49.398;7.614;2024-02-23T13:16:33;7.90;99.90
50570;DHT22;36525;49.398;7.614;2024-02-23T13:19:00;7.90;99.90
50570;DHT22;36525;49.398;7.614;2024-02-23T13:21:27;7.90;99.90
50570;DHT22;36525;49.398;7.614;2024-02-23T13:23:54;7.80;99.90
50570;DHT22;36525;49.398;7.614;2024-02-23T13:26:21;7.90;99.90
50570;DHT22;36525;49.398;7.614;2024-02-23T13:28:48;8.00;99.90
50570;DHT22;36525;49.398;7.614;2024-02-23T13:31:32;8.00;99.90
50570;DHT22;36525;49.398;7.614;2024-02-23T13:33:59;8.20;99.90
50570;DHT22;36525;49.398;7.614;2024-02-23T13:36:26;8.30;99.90
50570;DHT22;36525;49.398;7.614;2024-02-23T13:38:53;8.30;99.90
50570;DHT22;36525;49.398;7.614;2024-02-23T13:41:21;8.30;99.90
50570;DHT22;36525;49.398;7.614;2024-02-23T13:43:48;8.40;99.90
50570;DHT22;36525;49.398;7.614;2024-02-23T13:46:15;8.90;99.90
50570;DHT22;36525;49.398;7.614;2024-02-23T13:48:41;8.90;99.90
50570;DHT22;36525;49.398;7.614;2024-02-23T13:51:09;9.10;99.90
50570;DHT22;36525;49.398;7.614;2024-02-23T13:53:36;9.10;99.90
50570;DHT22;36525;49.398;7.614;2024-02-23T13:56:04;8.60;99.90
50570;DHT22;36525;49.398;7.614;2024-02-23T13:58:31;8.50;99.90
50570;DHT22;36525;49.398;7.614;2024-02-23T14:00:58;8.60;99.90
50570;DHT22;36525;49.398;7.614;2024-02-23T14:03:25;8.60;99.90
50570;DHT22;36525;49.398;7.614;2024-02-23T14:05:52;8.40;99.90
50570;DHT22;36525;49.398;7.614;2024-02-23T14:08:19;8.30;99.90
50570;DHT22;36525;49.398;7.614;2024-02-23T14:10:46;8.20;99.90
50570;DHT22;36525;49.398;7.614;2024-02-23T14:13:13;8.90;99.90
50570;DHT22;36525;49.398;7.614;2024-02-23T14:15:40;9.20;99.90
50570;DHT22;36525;49.398;7.614;2024-02-23T14:18:06;9.70;99.90
50570;DHT22;36525;49.398;7.614;2024-02-23T14:20:33;9.70;99.90
50570;DHT22;36525;49.398;7.614;2024-02-23T14:23:00;9.40;99.90
50570;DHT22;36525;49.398;7.614;2024-02-23T14:25:27;9.10;99.90
50570;DHT22;36525;49.398;7.614;2024-02-23T14:27:54;8.80;99.90
50570;DHT22;36525;49.398;7.614;2024-02-23T14:30:22;8.60;99.90
50570;DHT22;36525;49.398;7.614;2024-02-23T14:32:49;8.60;99.90
50570;DHT22;36525;49.398;7.614;2024-02-23T14:35:16;8.60;99.90
50570;DHT22;36525;49.398;7.614;2024-02-23T14:37:44;8.70;99.90
50570;DHT22;36525;49.398;7.614;2024-02-23T14:40:11;8.70;99.90
50570;DHT22;36525;49.398;7.614;2024-02-23T14:42:38;8.70;99.90
50570;DHT22;36525;49.398;7.614;2024-02-23T14:45:07;8.70;99.90
50570;DHT22;36525;49.398;7.614;2024-02-23T14:47:34;8.60;99.90
50570;DHT22;36525;49.398;7.614;2024-02-23T14:50:11;8.60;99.90
50570;DHT22;36525;49.398;7.614;2024-02-23T14:52:38;8.40;99.90
50570;DHT22;36525;49.398;7.614;2024-02-23T14:55:05;8.20;99.90
50570;DHT22;36525;49.398;7.614;2024-02-23T14:57:32;8.20;99.90
50570;DHT22;36525;49.398;7.614;2024-02-23T14:59:59;8.20;99.90
50570;DHT22;36525;49.398;7.614;2024-02-23T15:02:26;8.10;99.90
50570;DHT22;36525;49.398;7.614;2024-02-23T15:04:53;8.00;99.90
50570;DHT22;36525;49.398;7.614;2024-02-23T15:07:20;8.00;99.90
50570;DHT22;36525;49.398;7.614;2024-02-23T15:09:47;7.90;99.90
50570;DHT22;36525;49.398;7.614;2024-02-23T15:12:14;7.80;99.90
50570;DHT22;36525;49.398;7.614;2024-02-23T15:14:41;7.60;99.90
50570;DHT22;36525;49.398;7.614;2024-02-23T15:17:08;7.60;99.90
50570;DHT22;36525;49.398;7.614;2024-02-23T15:19:35;7.60;99.90
50570;DHT22;36525;49.398;7.614;2024-02-23T15:22:02;7.50;99.90
50570;DHT22;36525;49.398;7.614;2024-02-23T15:24:28;7.40;99.90
50570;DHT22;36525;49.398;7.614;2024-02-23T15:26:55;7.30;99.90
50570;DHT22;36525;49.398;7.614;2024-02-23T15:29:22;7.20;99.90
50570;DHT22;36525;49.398;7.614;2024-02-23T15:31:49;6.90;99.90
50570;DHT22;36525;49.398;7.614;2024-02-23T15:34:16;6.60;99.90
50570;DHT22;36525;49.398;7.614;2024-02-23T15:36:42;6.30;99.90
50570;DHT22;36525;49.398;7.614;2024-02-23T15:39:09;6.20;99.90
50570;DHT22;36525;49.398;7.614;2024-02-23T15:41:37;6.20;99.90
50570;DHT22;36525;49.398;7.614;2024-02-23T15:44:04;6.10;99.90
50570;DHT22;36525;49.398;7.614;2024-02-23T15:46:32;6.10;99.90
50570;DHT22;36525;49.398;7.614;2024-02-23T15:48:58;6.20;99.90
50570;DHT22;36525;49.398;7.614;2024-02-23T15:51:25;6.30;99.90
50570;DHT22;36525;49.398;7.614;2024-02-23T15:54:12;6.20;99.90